TVF77HR LFPO-OEMA
Flight info
| Callsign | TVF77HR |
|---|---|
| Flight time | N/A |
| Altitude | 37000 |
| Route | BUBLI DCT LUVAL DCT BEGAR DCT TRA DCT SUXAN DCT ROTAR DCT SPL DCT PINDO DCT PIKOS DCT GERMI DCT MIL UL617 SIT UL607 PAXIS Y707 OBRAN L321 REXUM M872 BOVET |
| Aircraft | B738/M-SDE2E3FGHIRWXY/LB1 |
Departure
| Time | 2026-05-07 06:24 |
|---|---|
| Airport | Paris-Orly Airport (LFPO) |
Arrival
| Time | N/A |
|---|---|
| Airport | Prince Mohammad Bin Abdulaziz Airport (OEMA) |
| Time | Latitude | Longitude | Altitude | Speed | Heading |
|---|---|---|---|---|---|
| 2026-05-07 06:14 | 48.72934 | 2.37591 | 288 ft | 0 kts | 310° |
| 2026-05-07 06:18 | 48.72909 | 2.37636 | 300 ft | 6 kts | 310° |
| 2026-05-07 06:19 | 48.72883 | 2.37683 | 300 ft | 6 kts | 310° |
| 2026-05-07 06:19 | 48.72859 | 2.37732 | 300 ft | 6 kts | 302° |
| 2026-05-07 06:19 | 48.72829 | 2.37768 | 297 ft | 6 kts | 1° |
| 2026-05-07 06:19 | 48.72817 | 2.37766 | 299 ft | 0 kts | 19° |
| 2026-05-07 06:20 | 48.72819 | 2.37767 | 299 ft | 1 kts | 19° |
| 2026-05-07 06:20 | 48.72844 | 2.37781 | 299 ft | 7 kts | 19° |
| 2026-05-07 06:20 | 48.72915 | 2.37819 | 297 ft | 13 kts | 19° |
| 2026-05-07 06:20 | 48.73000 | 2.37865 | 294 ft | 13 kts | 19° |
| 2026-05-07 06:21 | 48.73079 | 2.37920 | 295 ft | 13 kts | 47° |
| 2026-05-07 06:21 | 48.73103 | 2.38041 | 298 ft | 13 kts | 45° |
| 2026-05-07 06:21 | 48.73209 | 2.38102 | 298 ft | 17 kts | 17° |
| 2026-05-07 06:21 | 48.73322 | 2.38157 | 295 ft | 17 kts | 19° |
| 2026-05-07 06:22 | 48.73429 | 2.38214 | 293 ft | 16 kts | 18° |
| 2026-05-07 06:22 | 48.73652 | 2.38322 | 295 ft | 17 kts | 18° |
| 2026-05-07 06:22 | 48.73758 | 2.38390 | 295 ft | 16 kts | 51° |
| 2026-05-07 06:23 | 48.73810 | 2.38557 | 296 ft | 23 kts | 79° |
| 2026-05-07 06:23 | 48.73739 | 2.38655 | 294 ft | 19 kts | 180° |
| 2026-05-07 06:23 | 48.73346 | 2.38469 | 297 ft | 97 kts | 199° |
| 2026-05-07 06:23 | 48.72487 | 2.38032 | 296 ft | 161 kts | 200° |
| 2026-05-07 06:24 | 48.71341 | 2.37445 | 728 ft | 184 kts | 200° |
| 2026-05-07 06:24 | 48.69983 | 2.36929 | 1192 ft | 206 kts | 181° |
| 2026-05-07 06:24 | 48.68603 | 2.37013 | 2412 ft | 192 kts | 178° |
| 2026-05-07 06:24 | 48.67308 | 2.37055 | 3399 ft | 184 kts | 179° |
| 2026-05-07 06:25 | 48.65979 | 2.37074 | 3871 ft | 202 kts | 179° |
| 2026-05-07 06:25 | 48.64498 | 2.37077 | 4091 ft | 222 kts | 180° |
| 2026-05-07 06:25 | 48.62890 | 2.37068 | 4328 ft | 239 kts | 180° |
| 2026-05-07 06:25 | 48.61194 | 2.37045 | 4780 ft | 246 kts | 180° |
| 2026-05-07 06:26 | 48.59481 | 2.37012 | 5336 ft | 247 kts | 180° |
| 2026-05-07 06:26 | 48.57750 | 2.36971 | 5875 ft | 250 kts | 181° |
| 2026-05-07 06:26 | 48.56011 | 2.36927 | 6430 ft | 251 kts | 181° |
| 2026-05-07 06:26 | 48.54258 | 2.36882 | 6948 ft | 252 kts | 181° |
| 2026-05-07 06:27 | 48.52499 | 2.36927 | 7432 ft | 255 kts | 170° |
| 2026-05-07 06:27 | 48.50893 | 2.38033 | 7897 ft | 258 kts | 139° |
| 2026-05-07 06:27 | 48.49883 | 2.40243 | 8372 ft | 261 kts | 107° |
| 2026-05-07 06:27 | 48.49707 | 2.42965 | 8852 ft | 264 kts | 88° |
| 2026-05-07 06:28 | 48.49851 | 2.45763 | 9190 ft | 275 kts | 84° |
| 2026-05-07 06:28 | 48.50065 | 2.48715 | 9471 ft | 290 kts | 83° |
| 2026-05-07 06:28 | 48.50291 | 2.51770 | 10103 ft | 294 kts | 84° |
| 2026-05-07 06:28 | 48.50513 | 2.54895 | 10500 ft | 310 kts | 84° |
| 2026-05-07 06:29 | 48.50739 | 2.58241 | 10671 ft | 331 kts | 84° |
| 2026-05-07 06:29 | 48.50968 | 2.61762 | 11054 ft | 343 kts | 84° |
| 2026-05-07 06:29 | 48.51197 | 2.65377 | 11663 ft | 348 kts | 84° |
| 2026-05-07 06:29 | 48.51424 | 2.69022 | 12345 ft | 351 kts | 84° |
| 2026-05-07 06:30 | 48.51652 | 2.72702 | 13007 ft | 354 kts | 84° |
| 2026-05-07 06:30 | 48.51877 | 2.76369 | 13658 ft | 358 kts | 84° |
| 2026-05-07 06:30 | 48.52106 | 2.80127 | 14262 ft | 361 kts | 83° |
| 2026-05-07 06:30 | 48.52630 | 2.83832 | 14842 ft | 363 kts | 69° |
| 2026-05-07 06:31 | 48.53722 | 2.87266 | 15446 ft | 364 kts | 56° |
| 2026-05-07 06:31 | 48.55278 | 2.90295 | 16045 ft | 366 kts | 48° |
| 2026-05-07 06:31 | 48.56963 | 2.93194 | 16617 ft | 369 kts | 47° |
| 2026-05-07 06:31 | 48.58682 | 2.96097 | 17191 ft | 373 kts | 47° |
| 2026-05-07 06:32 | 48.60416 | 2.99034 | 17772 ft | 376 kts | 47° |
| 2026-05-07 06:32 | 48.62152 | 3.02004 | 18348 ft | 379 kts | 47° |
| 2026-05-07 06:32 | 48.63895 | 3.05010 | 18838 ft | 382 kts | 47° |
| 2026-05-07 06:32 | 48.65647 | 3.08051 | 19321 ft | 385 kts | 48° |
| 2026-05-07 06:33 | 48.67409 | 3.11123 | 19805 ft | 388 kts | 48° |
| 2026-05-07 06:33 | 48.69185 | 3.14226 | 20285 ft | 391 kts | 48° |
| 2026-05-07 06:33 | 48.70971 | 3.17351 | 20763 ft | 394 kts | 48° |
| 2026-05-07 06:33 | 48.72772 | 3.20506 | 21226 ft | 397 kts | 48° |
| 2026-05-07 06:34 | 48.74583 | 3.23683 | 21695 ft | 400 kts | 48° |
| 2026-05-07 06:34 | 48.76409 | 3.26887 | 22145 ft | 403 kts | 48° |
| 2026-05-07 06:34 | 48.78248 | 3.30120 | 22590 ft | 406 kts | 48° |
| 2026-05-07 06:34 | 48.80083 | 3.33402 | 23023 ft | 410 kts | 52° |
| 2026-05-07 06:35 | 48.81455 | 3.37209 | 23411 ft | 415 kts | 71° |
| 2026-05-07 06:35 | 48.82043 | 3.41492 | 23813 ft | 417 kts | 88° |
| 2026-05-07 06:35 | 48.81887 | 3.45886 | 24222 ft | 418 kts | 96° |
| 2026-05-07 06:35 | 48.81576 | 3.50275 | 24604 ft | 420 kts | 96° |
| 2026-05-07 06:36 | 48.81251 | 3.54681 | 24952 ft | 422 kts | 96° |
| 2026-05-07 06:36 | 48.80931 | 3.59121 | 25308 ft | 424 kts | 96° |
| 2026-05-07 06:36 | 48.80624 | 3.63582 | 25669 ft | 426 kts | 96° |
| 2026-05-07 06:36 | 48.80325 | 3.68061 | 26040 ft | 428 kts | 95° |
| 2026-05-07 06:37 | 48.80031 | 3.72556 | 26396 ft | 429 kts | 95° |
| 2026-05-07 06:37 | 48.79737 | 3.77073 | 26739 ft | 431 kts | 95° |
| 2026-05-07 06:37 | 48.79442 | 3.81602 | 27076 ft | 433 kts | 95° |
| 2026-05-07 06:37 | 48.79142 | 3.86157 | 27408 ft | 435 kts | 95° |
| 2026-05-07 06:38 | 48.78840 | 3.90729 | 27733 ft | 437 kts | 95° |
| 2026-05-07 06:38 | 48.78534 | 3.95316 | 28051 ft | 438 kts | 95° |
| 2026-05-07 06:38 | 48.78226 | 3.99920 | 28376 ft | 440 kts | 95° |
| 2026-05-07 06:38 | 48.77914 | 4.04543 | 28691 ft | 442 kts | 95° |
| 2026-05-07 06:39 | 48.77582 | 4.09178 | 28984 ft | 443 kts | 98° |
| 2026-05-07 06:39 | 48.76868 | 4.13735 | 29258 ft | 446 kts | 108° |
| 2026-05-07 06:39 | 48.75672 | 4.18082 | 29562 ft | 448 kts | 117° |
| 2026-05-07 06:39 | 48.74032 | 4.22106 | 29838 ft | 450 kts | 124° |
| 2026-05-07 06:40 | 48.72209 | 4.25968 | 30101 ft | 452 kts | 125° |
| 2026-05-07 06:40 | 48.70350 | 4.29822 | 30299 ft | 454 kts | 126° |
| 2026-05-07 06:40 | 48.68481 | 4.33690 | 30489 ft | 456 kts | 125° |
| 2026-05-07 06:40 | 48.66615 | 4.37579 | 30703 ft | 457 kts | 125° |
| 2026-05-07 06:41 | 48.64758 | 4.41473 | 31009 ft | 456 kts | 125° |
| 2026-05-07 06:41 | 48.62913 | 4.45361 | 31349 ft | 454 kts | 125° |
| 2026-05-07 06:41 | 48.61101 | 4.49190 | 31624 ft | 454 kts | 125° |
| 2026-05-07 06:41 | 48.59264 | 4.53072 | 31849 ft | 454 kts | 125° |
| 2026-05-07 06:42 | 48.57424 | 4.56957 | 32103 ft | 454 kts | 125° |
| 2026-05-07 06:42 | 48.55588 | 4.60827 | 32392 ft | 453 kts | 125° |
| 2026-05-07 06:42 | 48.53752 | 4.64690 | 32667 ft | 453 kts | 125° |
| 2026-05-07 06:42 | 48.51917 | 4.68544 | 32898 ft | 453 kts | 126° |
| 2026-05-07 06:43 | 48.50074 | 4.72409 | 33110 ft | 453 kts | 126° |
| 2026-05-07 06:43 | 48.48233 | 4.76265 | 33358 ft | 453 kts | 126° |
| 2026-05-07 06:43 | 48.46394 | 4.80112 | 33631 ft | 452 kts | 126° |
| 2026-05-07 06:43 | 48.44553 | 4.83954 | 33853 ft | 452 kts | 126° |
| 2026-05-07 06:44 | 48.42713 | 4.87792 | 34066 ft | 452 kts | 126° |
| 2026-05-07 06:44 | 48.40869 | 4.91631 | 34271 ft | 452 kts | 126° |
| 2026-05-07 06:44 | 48.39026 | 4.95466 | 34435 ft | 453 kts | 126° |
| 2026-05-07 06:44 | 48.37177 | 4.99305 | 34611 ft | 453 kts | 126° |
| 2026-05-07 06:45 | 48.35327 | 5.03143 | 34775 ft | 453 kts | 126° |
| 2026-05-07 06:45 | 48.33476 | 5.06979 | 34927 ft | 454 kts | 126° |
| 2026-05-07 06:45 | 48.31621 | 5.10817 | 35087 ft | 454 kts | 125° |
| 2026-05-07 06:45 | 48.29990 | 5.14871 | 35222 ft | 455 kts | 116° |
| 2026-05-07 06:46 | 48.28778 | 5.19253 | 35367 ft | 455 kts | 107° |
| 2026-05-07 06:46 | 48.28005 | 5.23856 | 35504 ft | 455 kts | 102° |
| 2026-05-07 06:46 | 48.27342 | 5.28441 | 35633 ft | 456 kts | 102° |
| 2026-05-07 06:46 | 48.26688 | 5.33091 | 35779 ft | 456 kts | 102° |
| 2026-05-07 06:47 | 48.26030 | 5.37745 | 35923 ft | 456 kts | 102° |
| 2026-05-07 06:47 | 48.25359 | 5.42399 | 36056 ft | 456 kts | 102° |
| 2026-05-07 06:47 | 48.24676 | 5.47054 | 36157 ft | 457 kts | 103° |
| 2026-05-07 06:47 | 48.23984 | 5.51708 | 36266 ft | 458 kts | 103° |
| 2026-05-07 06:48 | 48.23282 | 5.56371 | 36401 ft | 458 kts | 103° |
| 2026-05-07 06:48 | 48.22578 | 5.61025 | 36532 ft | 458 kts | 103° |
| 2026-05-07 06:48 | 48.21157 | 5.70359 | 36676 ft | 461 kts | 103° |
| 2026-05-07 06:49 | 48.19718 | 5.79756 | 36816 ft | 463 kts | 103° |
| 2026-05-07 06:49 | 48.18269 | 5.89174 | 37009 ft | 464 kts | 103° |
| 2026-05-07 06:50 | 48.16807 | 5.98628 | 37032 ft | 468 kts | 104° |
| 2026-05-07 06:50 | 48.15324 | 6.08150 | 37023 ft | 471 kts | 104° |
| 2026-05-07 06:51 | 48.13825 | 6.17729 | 37027 ft | 474 kts | 104° |
| 2026-05-07 06:51 | 48.12312 | 6.27336 | 37024 ft | 475 kts | 104° |
| 2026-05-07 06:52 | 48.10790 | 6.36946 | 37033 ft | 474 kts | 104° |
| 2026-05-07 06:52 | 48.09262 | 6.46535 | 37029 ft | 473 kts | 104° |
| 2026-05-07 06:53 | 48.07730 | 6.56094 | 37027 ft | 471 kts | 104° |
| 2026-05-07 06:53 | 48.06199 | 6.65595 | 37029 ft | 469 kts | 104° |
| 2026-05-07 06:54 | 48.04665 | 6.75057 | 37033 ft | 467 kts | 104° |
| 2026-05-07 06:54 | 48.03141 | 6.84406 | 37030 ft | 465 kts | 104° |
| 2026-05-07 06:55 | 48.01605 | 6.93781 | 37025 ft | 464 kts | 105° |
| 2026-05-07 06:55 | 48.00065 | 7.03121 | 37026 ft | 463 kts | 105° |
| 2026-05-07 06:56 | 47.98519 | 7.12451 | 37027 ft | 463 kts | 105° |
| 2026-05-07 06:56 | 47.96964 | 7.21782 | 37018 ft | 463 kts | 105° |
| 2026-05-07 06:57 | 47.95400 | 7.31115 | 37026 ft | 464 kts | 105° |
| 2026-05-07 06:57 | 47.93825 | 7.40469 | 37024 ft | 466 kts | 105° |
| 2026-05-07 06:58 | 47.92239 | 7.49841 | 37024 ft | 467 kts | 105° |
| 2026-05-07 06:58 | 47.90612 | 7.59230 | 37016 ft | 468 kts | 109° |
| 2026-05-07 06:59 | 47.88430 | 7.68293 | 37028 ft | 468 kts | 112° |
| 2026-05-07 06:59 | 47.86055 | 7.77337 | 37029 ft | 470 kts | 113° |
| 2026-05-07 07:00 | 47.83706 | 7.86422 | 37021 ft | 471 kts | 112° |
| 2026-05-07 07:00 | 47.81382 | 7.95544 | 37016 ft | 471 kts | 112° |
| 2026-05-07 07:01 | 47.79058 | 8.04667 | 37012 ft | 471 kts | 112° |
| 2026-05-07 07:01 | 47.77000 | 8.12713 | 37024 ft | 471 kts | 112° |
| 2026-05-07 07:02 | 47.74664 | 8.21805 | 37019 ft | 470 kts | 112° |
| 2026-05-07 07:02 | 47.72326 | 8.30869 | 37014 ft | 469 kts | 112° |
| 2026-05-07 07:03 | 47.70088 | 8.39507 | 37011 ft | 468 kts | 113° |
| 2026-05-07 07:03 | 47.66950 | 8.47858 | 37016 ft | 461 kts | 130° |
| 2026-05-07 07:04 | 47.62943 | 8.55265 | 37011 ft | 460 kts | 131° |
| 2026-05-07 07:04 | 47.59599 | 8.61376 | 37026 ft | 459 kts | 131° |
| 2026-05-07 07:05 | 47.54941 | 8.69973 | 37016 ft | 461 kts | 131° |
| 2026-05-07 07:05 | 47.51596 | 8.76184 | 37042 ft | 461 kts | 131° |
| 2026-05-07 07:06 | 47.47596 | 8.83608 | 37031 ft | 462 kts | 131° |
| 2026-05-07 07:06 | 47.43594 | 8.91015 | 37049 ft | 462 kts | 131° |
| 2026-05-07 07:07 | 47.39572 | 8.98437 | 37017 ft | 463 kts | 131° |
| 2026-05-07 07:07 | 47.35541 | 9.05853 | 37012 ft | 463 kts | 131° |
| 2026-05-07 07:08 | 47.31538 | 9.13199 | 37023 ft | 463 kts | 131° |
| 2026-05-07 07:08 | 47.27507 | 9.20575 | 37033 ft | 463 kts | 131° |
| 2026-05-07 07:09 | 47.23453 | 9.27973 | 37019 ft | 465 kts | 132° |
| 2026-05-07 07:09 | 47.19386 | 9.35376 | 36997 ft | 466 kts | 132° |
| 2026-05-07 07:10 | 47.15318 | 9.42761 | 36991 ft | 464 kts | 132° |
| 2026-05-07 07:10 | 47.11264 | 9.50103 | 37003 ft | 462 kts | 132° |
| 2026-05-07 07:11 | 47.07215 | 9.57413 | 36997 ft | 461 kts | 132° |
| 2026-05-07 07:11 | 47.03174 | 9.64689 | 36998 ft | 460 kts | 133° |
| 2026-05-07 07:12 | 46.99135 | 9.71941 | 37001 ft | 459 kts | 133° |
| 2026-05-07 07:12 | 46.95096 | 9.79177 | 36999 ft | 458 kts | 133° |
| 2026-05-07 07:13 | 46.91057 | 9.86392 | 37008 ft | 459 kts | 133° |
| 2026-05-07 07:13 | 46.87007 | 9.93607 | 37007 ft | 459 kts | 133° |
| 2026-05-07 07:14 | 46.82949 | 10.00820 | 36993 ft | 460 kts | 133° |
| 2026-05-07 07:14 | 46.78889 | 10.08017 | 37011 ft | 459 kts | 133° |
| 2026-05-07 07:15 | 46.74838 | 10.15180 | 37003 ft | 457 kts | 134° |
| 2026-05-07 07:15 | 46.70811 | 10.22280 | 37004 ft | 458 kts | 134° |
| 2026-05-07 07:16 | 46.66746 | 10.29429 | 37006 ft | 458 kts | 134° |
| 2026-05-07 07:16 | 46.62667 | 10.36587 | 36992 ft | 460 kts | 134° |
| 2026-05-07 07:17 | 46.58573 | 10.43753 | 36976 ft | 461 kts | 134° |
| 2026-05-07 07:17 | 46.54547 | 10.51040 | 36977 ft | 464 kts | 131° |
| 2026-05-07 07:18 | 46.50777 | 10.58651 | 36978 ft | 464 kts | 130° |
| 2026-05-07 07:18 | 46.47049 | 10.66299 | 36981 ft | 464 kts | 130° |
| 2026-05-07 07:19 | 46.43301 | 10.73905 | 36983 ft | 463 kts | 130° |
| 2026-05-07 07:19 | 46.39538 | 10.81467 | 36966 ft | 461 kts | 131° |
| 2026-05-07 07:20 | 46.35808 | 10.88930 | 36990 ft | 454 kts | 131° |
| 2026-05-07 07:20 | 46.32098 | 10.96326 | 37008 ft | 456 kts | 131° |
| 2026-05-07 07:21 | 46.28355 | 11.03765 | 37014 ft | 458 kts | 131° |
| 2026-05-07 07:21 | 46.24590 | 11.11232 | 37031 ft | 462 kts | 131° |
| 2026-05-07 07:22 | 46.20790 | 11.18752 | 37020 ft | 465 kts | 131° |
| 2026-05-07 07:22 | 46.16962 | 11.26307 | 36993 ft | 467 kts | 131° |
| 2026-05-07 07:23 | 46.13160 | 11.33803 | 36987 ft | 459 kts | 131° |
| 2026-05-07 07:23 | 46.09407 | 11.41178 | 36943 ft | 454 kts | 132° |
| 2026-05-07 07:24 | 46.05716 | 11.48406 | 36967 ft | 452 kts | 132° |
| 2026-05-07 07:24 | 46.01970 | 11.55711 | 36959 ft | 455 kts | 132° |
| 2026-05-07 07:25 | 45.96308 | 11.66729 | 36974 ft | 459 kts | 132° |
| 2026-05-07 07:26 | 45.92493 | 11.74131 | 36984 ft | 462 kts | 132° |
| 2026-05-07 07:26 | 45.88645 | 11.81578 | 36974 ft | 466 kts | 132° |
| 2026-05-07 07:27 | 45.84804 | 11.89000 | 36950 ft | 459 kts | 132° |
| 2026-05-07 07:27 | 45.81020 | 11.96294 | 36959 ft | 454 kts | 133° |
| 2026-05-07 07:28 | 45.77258 | 12.03514 | 36962 ft | 453 kts | 133° |
| 2026-05-07 07:28 | 45.73481 | 12.10744 | 36959 ft | 452 kts | 133° |
| 2026-05-07 07:29 | 45.69713 | 12.17940 | 36965 ft | 452 kts | 133° |
| 2026-05-07 07:29 | 45.65933 | 12.25143 | 36966 ft | 453 kts | 133° |
| 2026-05-07 07:30 | 45.62145 | 12.32344 | 36965 ft | 454 kts | 133° |
| 2026-05-07 07:30 | 45.58337 | 12.39563 | 36978 ft | 456 kts | 133° |
| 2026-05-07 07:31 | 45.54510 | 12.46799 | 36975 ft | 457 kts | 133° |
| 2026-05-07 07:31 | 45.50697 | 12.53993 | 36960 ft | 458 kts | 133° |
| 2026-05-07 07:32 | 45.46843 | 12.61244 | 36959 ft | 459 kts | 133° |
| 2026-05-07 07:32 | 45.42979 | 12.68497 | 36964 ft | 460 kts | 133° |
| 2026-05-07 07:33 | 45.39110 | 12.75741 | 36964 ft | 460 kts | 133° |
| 2026-05-07 07:33 | 45.35241 | 12.82968 | 36963 ft | 459 kts | 133° |
| 2026-05-07 07:34 | 45.31373 | 12.90174 | 36969 ft | 458 kts | 134° |
| 2026-05-07 07:34 | 45.27509 | 12.97356 | 36968 ft | 457 kts | 134° |
| 2026-05-07 07:35 | 45.23706 | 13.04577 | 36970 ft | 457 kts | 132° |